sensor_id;sensor_type;location;lat;lon;timestamp;P1;durP1;ratioP1;P2;durP2;ratioP2
61104;SDS011;46987;32.638;-115.438;2023-04-09T00:01:02;7.13;;;1.58;;
61104;SDS011;46987;32.638;-115.438;2023-04-09T00:03:29;4.25;;;1.00;;
61104;SDS011;46987;32.638;-115.438;2023-04-09T00:05:56;8.35;;;1.83;;
61104;SDS011;46987;32.638;-115.438;2023-04-09T00:08:22;4.63;;;0.98;;
61104;SDS011;46987;32.638;-115.438;2023-04-09T00:10:49;8.82;;;1.75;;
61104;SDS011;46987;32.638;-115.438;2023-04-09T00:13:16;5.10;;;1.65;;
61104;SDS011;46987;32.638;-115.438;2023-04-09T00:15:44;5.20;;;1.27;;
61104;SDS011;46987;32.638;-115.438;2023-04-09T00:18:11;5.03;;;1.05;;
61104;SDS011;46987;32.638;-115.438;2023-04-09T00:20:38;8.93;;;1.30;;
61104;SDS011;46987;32.638;-115.438;2023-04-09T00:23:05;5.82;;;1.60;;
61104;SDS011;46987;32.638;-115.438;2023-04-09T00:25:31;6.07;;;1.60;;
61104;SDS011;46987;32.638;-115.438;2023-04-09T00:27:58;6.53;;;1.30;;
61104;SDS011;46987;32.638;-115.438;2023-04-09T00:30:25;12.02;;;2.08;;
61104;SDS011;46987;32.638;-115.438;2023-04-09T00:32:55;5.03;;;1.45;;
61104;SDS011;46987;32.638;-115.438;2023-04-09T00:35:22;3.90;;;1.00;;
61104;SDS011;46987;32.638;-115.438;2023-04-09T00:37:48;5.80;;;1.63;;
61104;SDS011;46987;32.638;-115.438;2023-04-09T00:40:16;5.07;;;1.45;;
61104;SDS011;46987;32.638;-115.438;2023-04-09T00:42:42;4.85;;;1.40;;
61104;SDS011;46987;32.638;-115.438;2023-04-09T00:45:09;5.38;;;1.40;;
61104;SDS011;46987;32.638;-115.438;2023-04-09T00:47:36;6.63;;;1.88;;
61104;SDS011;46987;32.638;-115.438;2023-04-09T00:50:05;6.05;;;1.80;;
61104;SDS011;46987;32.638;-115.438;2023-04-09T00:52:31;6.75;;;2.28;;
61104;SDS011;46987;32.638;-115.438;2023-04-09T00:54:58;6.22;;;2.10;;
61104;SDS011;46987;32.638;-115.438;2023-04-09T00:57:26;7.80;;;1.90;;
61104;SDS011;46987;32.638;-115.438;2023-04-09T00:59:53;5.40;;;1.60;;
61104;SDS011;46987;32.638;-115.438;2023-04-09T01:02:20;10.60;;;1.90;;
61104;SDS011;46987;32.638;-115.438;2023-04-09T01:04:47;4.75;;;1.42;;
61104;SDS011;46987;32.638;-115.438;2023-04-09T01:07:18;7.45;;;1.90;;
61104;SDS011;46987;32.638;-115.438;2023-04-09T01:09:47;5.20;;;1.30;;
61104;SDS011;46987;32.638;-115.438;2023-04-09T01:12:20;4.63;;;1.48;;
61104;SDS011;46987;32.638;-115.438;2023-04-09T01:14:51;6.20;;;1.45;;
61104;SDS011;46987;32.638;-115.438;2023-04-09T01:17:22;7.63;;;1.27;;
61104;SDS011;46987;32.638;-115.438;2023-04-09T01:19:52;8.98;;;1.52;;
61104;SDS011;46987;32.638;-115.438;2023-04-09T01:22:34;8.77;;;1.77;;
61104;SDS011;46987;32.638;-115.438;2023-04-09T01:25:06;8.25;;;1.67;;
61104;SDS011;46987;32.638;-115.438;2023-04-09T01:27:43;5.30;;;1.52;;
61104;SDS011;46987;32.638;-115.438;2023-04-09T01:30:14;7.20;;;1.63;;
61104;SDS011;46987;32.638;-115.438;2023-04-09T01:32:41;5.20;;;1.48;;
61104;SDS011;46987;32.638;-115.438;2023-04-09T01:35:09;6.38;;;1.58;;
61104;SDS011;46987;32.638;-115.438;2023-04-09T01:37:35;7.18;;;2.05;;
61104;SDS011;46987;32.638;-115.438;2023-04-09T01:40:03;6.55;;;1.88;;
61104;SDS011;46987;32.638;-115.438;2023-04-09T01:42:30;8.57;;;2.15;;
61104;SDS011;46987;32.638;-115.438;2023-04-09T01:44:57;10.10;;;2.58;;
61104;SDS011;46987;32.638;-115.438;2023-04-09T01:47:25;11.45;;;3.03;;
61104;SDS011;46987;32.638;-115.438;2023-04-09T01:49:52;6.10;;;2.00;;
61104;SDS011;46987;32.638;-115.438;2023-04-09T01:52:19;11.20;;;4.20;;
61104;SDS011;46987;32.638;-115.438;2023-04-09T01:54:46;12.18;;;5.53;;
61104;SDS011;46987;32.638;-115.438;2023-04-09T01:57:12;10.93;;;6.15;;
61104;SDS011;46987;32.638;-115.438;2023-04-09T01:59:39;14.30;;;6.10;;
61104;SDS011;46987;32.638;-115.438;2023-04-09T02:02:08;7.78;;;4.22;;
61104;SDS011;46987;32.638;-115.438;2023-04-09T02:04:37;8.60;;;4.05;;
61104;SDS011;46987;32.638;-115.438;2023-04-09T02:07:07;8.02;;;3.22;;
61104;SDS011;46987;32.638;-115.438;2023-04-09T02:09:36;12.20;;;4.07;;
61104;SDS011;46987;32.638;-115.438;2023-04-09T02:12:05;9.57;;;4.30;;
61104;SDS011;46987;32.638;-115.438;2023-04-09T02:14:32;13.88;;;4.97;;
61104;SDS011;46987;32.638;-115.438;2023-04-09T02:16:59;11.63;;;4.68;;
61104;SDS011;46987;32.638;-115.438;2023-04-09T02:19:38;9.73;;;3.97;;
61104;SDS011;46987;32.638;-115.438;2023-04-09T02:22:05;20.92;;;7.57;;
61104;SDS011;46987;32.638;-115.438;2023-04-09T02:24:32;27.88;;;7.55;;
61104;SDS011;46987;32.638;-115.438;2023-04-09T02:26:59;20.65;;;6.70;;
61104;SDS011;46987;32.638;-115.438;2023-04-09T02:29:25;24.92;;;6.22;;
61104;SDS011;46987;32.638;-115.438;2023-04-09T02:31:52;10.27;;;3.42;;
61104;SDS011;46987;32.638;-115.438;2023-04-09T02:34:19;12.73;;;3.88;;
61104;SDS011;46987;32.638;-115.438;2023-04-09T02:36:49;9.88;;;2.50;;
61104;SDS011;46987;32.638;-115.438;2023-04-09T02:39:15;8.40;;;2.63;;
61104;SDS011;46987;32.638;-115.438;2023-04-09T02:41:42;8.65;;;2.53;;
61104;SDS011;46987;32.638;-115.438;2023-04-09T02:44:09;11.23;;;3.20;;
61104;SDS011;46987;32.638;-115.438;2023-04-09T02:46:36;7.22;;;3.25;;
61104;SDS011;46987;32.638;-115.438;2023-04-09T02:49:03;11.15;;;4.03;;
61104;SDS011;46987;32.638;-115.438;2023-04-09T02:51:30;17.15;;;7.03;;
61104;SDS011;46987;32.638;-115.438;2023-04-09T02:53:58;15.05;;;5.97;;
61104;SDS011;46987;32.638;-115.438;2023-04-09T02:56:25;14.02;;;6.72;;
61104;SDS011;46987;32.638;-115.438;2023-04-09T02:58:52;15.18;;;8.10;;
61104;SDS011;46987;32.638;-115.438;2023-04-09T03:01:19;15.18;;;6.78;;
61104;SDS011;46987;32.638;-115.438;2023-04-09T03:03:46;21.70;;;6.72;;
61104;SDS011;46987;32.638;-115.438;2023-04-09T03:06:12;17.33;;;6.03;;
61104;SDS011;46987;32.638;-115.438;2023-04-09T03:08:39;23.10;;;6.85;;
61104;SDS011;46987;32.638;-115.438;2023-04-09T03:11:07;14.52;;;5.50;;
61104;SDS011;46987;32.638;-115.438;2023-04-09T03:13:34;22.65;;;6.32;;
61104;SDS011;46987;32.638;-115.438;2023-04-09T03:16:00;15.57;;;5.57;;
61104;SDS011;46987;32.638;-115.438;2023-04-09T03:18:27;20.25;;;6.38;;
61104;SDS011;46987;32.638;-115.438;2023-04-09T03:20:54;15.27;;;6.28;;
61104;SDS011;46987;32.638;-115.438;2023-04-09T03:23:21;27.65;;;14.10;;
61104;SDS011;46987;32.638;-115.438;2023-04-09T03:25:48;30.10;;;13.40;;
61104;SDS011;46987;32.638;-115.438;2023-04-09T03:28:27;29.88;;;14.88;;
61104;SDS011;46987;32.638;-115.438;2023-04-09T03:30:53;29.70;;;16.48;;
61104;SDS011;46987;32.638;-115.438;2023-04-09T03:33:21;36.60;;;18.65;;
61104;SDS011;46987;32.638;-115.438;2023-04-09T03:35:53;31.38;;;18.17;;
61104;SDS011;46987;32.638;-115.438;2023-04-09T03:38:40;34.08;;;18.35;;
61104;SDS011;46987;32.638;-115.438;2023-04-09T03:41:20;47.45;;;25.75;;
61104;SDS011;46987;32.638;-115.438;2023-04-09T03:43:49;59.25;;;47.78;;
61104;SDS011;46987;32.638;-115.438;2023-04-09T03:46:20;81.30;;;64.50;;
61104;SDS011;46987;32.638;-115.438;2023-04-09T03:48:47;80.05;;;59.97;;
61104;SDS011;46987;32.638;-115.438;2023-04-09T03:51:14;90.80;;;69.45;;
61104;SDS011;46987;32.638;-115.438;2023-04-09T03:53:47;88.57;;;67.40;;
61104;SDS011;46987;32.638;-115.438;2023-04-09T03:56:14;87.35;;;64.82;;
61104;SDS011;46987;32.638;-115.438;2023-04-09T03:58:42;70.20;;;52.45;;
61104;SDS011;46987;32.638;-115.438;2023-04-09T04:01:12;60.55;;;31.40;;
61104;SDS011;46987;32.638;-115.438;2023-04-09T04:03:50;43.03;;;21.58;;
61104;SDS011;46987;32.638;-115.438;2023-04-09T04:06:25;35.95;;;15.07;;
61104;SDS011;46987;32.638;-115.438;2023-04-09T04:09:04;35.05;;;16.45;;
61104;SDS011;46987;32.638;-115.438;2023-04-09T04:11:46;25.80;;;12.15;;
61104;SDS011;46987;32.638;-115.438;2023-04-09T04:14:13;25.73;;;11.38;;
61104;SDS011;46987;32.638;-115.438;2023-04-09T04:16:46;29.75;;;11.13;;
61104;SDS011;46987;32.638;-115.438;2023-04-09T04:19:18;32.40;;;11.68;;
61104;SDS011;46987;32.638;-115.438;2023-04-09T04:21:48;31.05;;;10.95;;
61104;SDS011;46987;32.638;-115.438;2023-04-09T04:24:15;25.90;;;10.82;;
61104;SDS011;46987;32.638;-115.438;2023-04-09T04:26:44;24.65;;;10.93;;
61104;SDS011;46987;32.638;-115.438;2023-04-09T04:29:14;31.83;;;13.90;;
61104;SDS011;46987;32.638;-115.438;2023-04-09T04:31:58;34.40;;;13.10;;
61104;SDS011;46987;32.638;-115.438;2023-04-09T04:34:30;29.17;;;13.43;;
61104;SDS011;46987;32.638;-115.438;2023-04-09T04:37:03;29.08;;;13.27;;
61104;SDS011;46987;32.638;-115.438;2023-04-09T04:39:32;32.33;;;14.02;;
61104;SDS011;46987;32.638;-115.438;2023-04-09T04:42:08;29.90;;;12.43;;
61104;SDS011;46987;32.638;-115.438;2023-04-09T04:44:35;29.38;;;12.63;;
61104;SDS011;46987;32.638;-115.438;2023-04-09T04:47:29;25.57;;;13.43;;
61104;SDS011;46987;32.638;-115.438;2023-04-09T04:49:57;32.08;;;13.45;;
61104;SDS011;46987;32.638;-115.438;2023-04-09T04:52:25;23.38;;;11.77;;
61104;SDS011;46987;32.638;-115.438;2023-04-09T04:54:54;24.35;;;11.98;;
61104;SDS011;46987;32.638;-115.438;2023-04-09T04:57:22;27.15;;;12.05;;
61104;SDS011;46987;32.638;-115.438;2023-04-09T04:59:49;28.40;;;11.25;;
61104;SDS011;46987;32.638;-115.438;2023-04-09T05:02:17;29.08;;;11.65;;
61104;SDS011;46987;32.638;-115.438;2023-04-09T05:05:12;27.65;;;10.93;;
61104;SDS011;46987;32.638;-115.438;2023-04-09T05:07:46;23.67;;;10.70;;
61104;SDS011;46987;32.638;-115.438;2023-04-09T05:10:14;34.03;;;10.43;;
61104;SDS011;46987;32.638;-115.438;2023-04-09T05:12:42;25.40;;;10.15;;
61104;SDS011;46987;32.638;-115.438;2023-04-09T05:15:10;29.40;;;10.15;;
61104;SDS011;46987;32.638;-115.438;2023-04-09T05:17:37;23.23;;;9.65;;
61104;SDS011;46987;32.638;-115.438;2023-04-09T05:20:06;24.80;;;9.85;;
61104;SDS011;46987;32.638;-115.438;2023-04-09T05:22:45;23.60;;;9.20;;
61104;SDS011;46987;32.638;-115.438;2023-04-09T05:25:12;26.73;;;11.43;;
61104;SDS011;46987;32.638;-115.438;2023-04-09T05:27:42;25.10;;;10.27;;
61104;SDS011;46987;32.638;-115.438;2023-04-09T05:30:09;21.73;;;9.65;;
61104;SDS011;46987;32.638;-115.438;2023-04-09T05:32:37;23.98;;;9.43;;
61104;SDS011;46987;32.638;-115.438;2023-04-09T05:35:04;27.63;;;9.07;;
61104;SDS011;46987;32.638;-115.438;2023-04-09T05:37:36;24.65;;;9.30;;
61104;SDS011;46987;32.638;-115.438;2023-04-09T05:40:05;25.95;;;9.52;;
61104;SDS011;46987;32.638;-115.438;2023-04-09T05:42:32;24.15;;;8.85;;
61104;SDS011;46987;32.638;-115.438;2023-04-09T05:45:02;28.05;;;9.15;;
61104;SDS011;46987;32.638;-115.438;2023-04-09T05:47:29;25.30;;;8.68;;
61104;SDS011;46987;32.638;-115.438;2023-04-09T05:50:03;25.35;;;9.02;;
61104;SDS011;46987;32.638;-115.438;2023-04-09T05:52:31;28.60;;;9.95;;
61104;SDS011;46987;32.638;-115.438;2023-04-09T05:54:58;28.83;;;9.93;;
61104;SDS011;46987;32.638;-115.438;2023-04-09T05:57:39;26.80;;;9.82;;
61104;SDS011;46987;32.638;-115.438;2023-04-09T06:00:07;31.02;;;9.25;;
61104;SDS011;46987;32.638;-115.438;2023-04-09T06:02:42;28.88;;;10.05;;
61104;SDS011;46987;32.638;-115.438;2023-04-09T06:05:09;25.00;;;9.13;;
61104;SDS011;46987;32.638;-115.438;2023-04-09T06:07:36;29.13;;;8.63;;
61104;SDS011;46987;32.638;-115.438;2023-04-09T06:10:03;23.95;;;9.30;;
61104;SDS011;46987;32.638;-115.438;2023-04-09T06:12:29;31.70;;;9.10;;
61104;SDS011;46987;32.638;-115.438;2023-04-09T06:14:58;22.73;;;7.93;;
61104;SDS011;46987;32.638;-115.438;2023-04-09T06:17:26;19.48;;;8.38;;
61104;SDS011;46987;32.638;-115.438;2023-04-09T06:19:54;23.02;;;7.93;;
61104;SDS011;46987;32.638;-115.438;2023-04-09T06:22:32;20.30;;;7.07;;
61104;SDS011;46987;32.638;-115.438;2023-04-09T06:24:59;16.35;;;6.82;;
61104;SDS011;46987;32.638;-115.438;2023-04-09T06:27:25;12.60;;;5.75;;
61104;SDS011;46987;32.638;-115.438;2023-04-09T06:29:52;21.13;;;6.95;;
61104;SDS011;46987;32.638;-115.438;2023-04-09T06:32:20;15.63;;;6.50;;
61104;SDS011;46987;32.638;-115.438;2023-04-09T06:34:47;23.17;;;7.22;;
61104;SDS011;46987;32.638;-115.438;2023-04-09T06:37:14;16.58;;;7.38;;
61104;SDS011;46987;32.638;-115.438;2023-04-09T06:39:41;18.42;;;7.53;;
61104;SDS011;46987;32.638;-115.438;2023-04-09T06:42:07;20.88;;;7.55;;
61104;SDS011;46987;32.638;-115.438;2023-04-09T06:44:50;20.63;;;7.18;;
61104;SDS011;46987;32.638;-115.438;2023-04-09T06:47:16;25.90;;;9.32;;
61104;SDS011;46987;32.638;-115.438;2023-04-09T06:49:45;18.35;;;6.30;;
61104;SDS011;46987;32.638;-115.438;2023-04-09T06:52:11;16.30;;;6.07;;
61104;SDS011;46987;32.638;-115.438;2023-04-09T06:54:38;20.00;;;6.97;;
61104;SDS011;46987;32.638;-115.438;2023-04-09T06:57:05;18.40;;;5.60;;
61104;SDS011;46987;32.638;-115.438;2023-04-09T06:59:32;14.30;;;4.85;;
61104;SDS011;46987;32.638;-115.438;2023-04-09T07:01:58;9.98;;;4.38;;
61104;SDS011;46987;32.638;-115.438;2023-04-09T07:04:25;20.38;;;5.40;;
61104;SDS011;46987;32.638;-115.438;2023-04-09T07:06:54;17.05;;;4.35;;
61104;SDS011;46987;32.638;-115.438;2023-04-09T07:09:21;11.50;;;3.42;;
61104;SDS011;46987;32.638;-115.438;2023-04-09T07:11:48;15.73;;;3.65;;
61104;SDS011;46987;32.638;-115.438;2023-04-09T07:14:17;13.05;;;3.35;;
61104;SDS011;46987;32.638;-115.438;2023-04-09T07:16:44;8.57;;;2.80;;
61104;SDS011;46987;32.638;-115.438;2023-04-09T07:19:11;9.77;;;3.00;;
61104;SDS011;46987;32.638;-115.438;2023-04-09T07:21:38;9.13;;;2.00;;
61104;SDS011;46987;32.638;-115.438;2023-04-09T07:24:06;7.65;;;2.47;;
61104;SDS011;46987;32.638;-115.438;2023-04-09T07:26:33;13.73;;;2.85;;
61104;SDS011;46987;32.638;-115.438;2023-04-09T07:29:00;11.60;;;2.00;;
61104;SDS011;46987;32.638;-115.438;2023-04-09T07:31:28;5.50;;;1.88;;
61104;SDS011;46987;32.638;-115.438;2023-04-09T07:33:55;5.45;;;1.80;;
61104;SDS011;46987;32.638;-115.438;2023-04-09T07:36:22;7.82;;;3.80;;
61104;SDS011;46987;32.638;-115.438;2023-04-09T07:38:48;8.52;;;2.95;;
61104;SDS011;46987;32.638;-115.438;2023-04-09T07:41:17;5.45;;;1.95;;
61104;SDS011;46987;32.638;-115.438;2023-04-09T07:43:44;8.80;;;1.75;;
61104;SDS011;46987;32.638;-115.438;2023-04-09T07:46:11;7.88;;;1.90;;
61104;SDS011;46987;32.638;-115.438;2023-04-09T07:48:43;8.15;;;2.78;;
61104;SDS011;46987;32.638;-115.438;2023-04-09T07:51:10;8.48;;;1.30;;
61104;SDS011;46987;32.638;-115.438;2023-04-09T07:53:36;4.32;;;1.17;;
61104;SDS011;46987;32.638;-115.438;2023-04-09T07:56:03;6.72;;;1.38;;
61104;SDS011;46987;32.638;-115.438;2023-04-09T07:58:31;5.15;;;1.45;;
61104;SDS011;46987;32.638;-115.438;2023-04-09T08:00:58;11.90;;;1.90;;
61104;SDS011;46987;32.638;-115.438;2023-04-09T08:03:25;6.03;;;1.65;;
61104;SDS011;46987;32.638;-115.438;2023-04-09T08:05:52;8.80;;;2.30;;
61104;SDS011;46987;32.638;-115.438;2023-04-09T08:08:18;8.77;;;2.25;;
61104;SDS011;46987;32.638;-115.438;2023-04-09T08:10:45;5.55;;;1.92;;
61104;SDS011;46987;32.638;-115.438;2023-04-09T08:13:12;5.95;;;1.67;;
61104;SDS011;46987;32.638;-115.438;2023-04-09T08:15:41;6.07;;;1.85;;
61104;SDS011;46987;32.638;-115.438;2023-04-09T08:18:07;7.28;;;2.00;;
61104;SDS011;46987;32.638;-115.438;2023-04-09T08:20:34;8.13;;;3.28;;
61104;SDS011;46987;32.638;-115.438;2023-04-09T08:23:01;11.48;;;2.92;;
61104;SDS011;46987;32.638;-115.438;2023-04-09T08:25:28;7.53;;;2.92;;
61104;SDS011;46987;32.638;-115.438;2023-04-09T08:27:54;9.88;;;3.40;;
61104;SDS011;46987;32.638;-115.438;2023-04-09T08:30:22;7.97;;;2.30;;
61104;SDS011;46987;32.638;-115.438;2023-04-09T08:32:50;6.00;;;2.22;;
61104;SDS011;46987;32.638;-115.438;2023-04-09T08:35:18;7.15;;;2.15;;
61104;SDS011;46987;32.638;-115.438;2023-04-09T08:37:45;6.15;;;2.28;;
61104;SDS011;46987;32.638;-115.438;2023-04-09T08:40:11;10.00;;;2.47;;
61104;SDS011;46987;32.638;-115.438;2023-04-09T08:42:39;7.10;;;1.60;;
61104;SDS011;46987;32.638;-115.438;2023-04-09T08:45:09;6.22;;;1.65;;
61104;SDS011;46987;32.638;-115.438;2023-04-09T08:47:36;5.47;;;1.50;;
61104;SDS011;46987;32.638;-115.438;2023-04-09T08:50:05;7.50;;;1.77;;
61104;SDS011;46987;32.638;-115.438;2023-04-09T08:52:32;6.35;;;1.73;;
61104;SDS011;46987;32.638;-115.438;2023-04-09T08:54:59;7.63;;;1.73;;
61104;SDS011;46987;32.638;-115.438;2023-04-09T08:57:26;10.27;;;2.47;;
61104;SDS011;46987;32.638;-115.438;2023-04-09T08:59:53;9.45;;;1.80;;
61104;SDS011;46987;32.638;-115.438;2023-04-09T09:02:19;6.63;;;1.55;;
61104;SDS011;46987;32.638;-115.438;2023-04-09T09:04:47;7.03;;;1.67;;
61104;SDS011;46987;32.638;-115.438;2023-04-09T09:07:16;8.27;;;1.88;;
61104;SDS011;46987;32.638;-115.438;2023-04-09T09:09:52;7.43;;;1.83;;
61104;SDS011;46987;32.638;-115.438;2023-04-09T09:12:36;7.82;;;2.10;;
61104;SDS011;46987;32.638;-115.438;2023-04-09T09:15:24;6.53;;;1.83;;
61104;SDS011;46987;32.638;-115.438;2023-04-09T09:17:54;11.57;;;2.50;;
61104;SDS011;46987;32.638;-115.438;2023-04-09T09:20:21;10.10;;;2.30;;
61104;SDS011;46987;32.638;-115.438;2023-04-09T09:22:50;6.97;;;2.13;;
61104;SDS011;46987;32.638;-115.438;2023-04-09T09:25:17;8.60;;;2.67;;
61104;SDS011;46987;32.638;-115.438;2023-04-09T09:27:48;7.25;;;2.75;;
61104;SDS011;46987;32.638;-115.438;2023-04-09T09:30:19;10.00;;;3.17;;
61104;SDS011;46987;32.638;-115.438;2023-04-09T09:32:47;10.13;;;2.67;;
61104;SDS011;46987;32.638;-115.438;2023-04-09T09:35:14;8.25;;;2.97;;
61104;SDS011;46987;32.638;-115.438;2023-04-09T09:37:41;11.07;;;3.15;;
61104;SDS011;46987;32.638;-115.438;2023-04-09T09:40:11;8.57;;;3.30;;
61104;SDS011;46987;32.638;-115.438;2023-04-09T09:42:53;10.00;;;2.80;;
61104;SDS011;46987;32.638;-115.438;2023-04-09T09:45:20;8.25;;;2.90;;
61104;SDS011;46987;32.638;-115.438;2023-04-09T09:47:47;9.18;;;2.55;;
61104;SDS011;46987;32.638;-115.438;2023-04-09T09:50:14;7.53;;;2.55;;
61104;SDS011;46987;32.638;-115.438;2023-04-09T09:52:41;8.88;;;2.47;;
61104;SDS011;46987;32.638;-115.438;2023-04-09T09:55:12;10.73;;;2.95;;
61104;SDS011;46987;32.638;-115.438;2023-04-09T09:57:43;7.40;;;2.33;;
61104;SDS011;46987;32.638;-115.438;2023-04-09T10:00:10;10.32;;;2.88;;
61104;SDS011;46987;32.638;-115.438;2023-04-09T10:02:40;13.05;;;3.90;;
61104;SDS011;46987;32.638;-115.438;2023-04-09T10:05:09;8.82;;;3.25;;
61104;SDS011;46987;32.638;-115.438;2023-04-09T10:07:36;11.85;;;3.42;;
61104;SDS011;46987;32.638;-115.438;2023-04-09T10:10:03;12.88;;;3.13;;
61104;SDS011;46987;32.638;-115.438;2023-04-09T10:12:33;10.98;;;3.55;;
61104;SDS011;46987;32.638;-115.438;2023-04-09T10:14:59;9.98;;;2.78;;
61104;SDS011;46987;32.638;-115.438;2023-04-09T10:17:31;7.07;;;2.20;;
61104;SDS011;46987;32.638;-115.438;2023-04-09T10:20:00;9.57;;;2.67;;
61104;SDS011;46987;32.638;-115.438;2023-04-09T10:22:30;17.98;;;2.85;;
61104;SDS011;46987;32.638;-115.438;2023-04-09T10:24:58;9.32;;;2.75;;
61104;SDS011;46987;32.638;-115.438;2023-04-09T10:27:25;8.50;;;2.25;;
61104;SDS011;46987;32.638;-115.438;2023-04-09T10:29:53;8.20;;;2.83;;
61104;SDS011;46987;32.638;-115.438;2023-04-09T10:32:20;10.45;;;3.10;;
61104;SDS011;46987;32.638;-115.438;2023-04-09T10:34:48;9.48;;;2.90;;
61104;SDS011;46987;32.638;-115.438;2023-04-09T10:37:15;7.50;;;2.38;;
61104;SDS011;46987;32.638;-115.438;2023-04-09T10:39:46;9.13;;;2.50;;
61104;SDS011;46987;32.638;-115.438;2023-04-09T10:42:13;7.60;;;2.67;;
61104;SDS011;46987;32.638;-115.438;2023-04-09T10:44:40;7.80;;;2.47;;
61104;SDS011;46987;32.638;-115.438;2023-04-09T10:47:09;9.65;;;2.30;;
61104;SDS011;46987;32.638;-115.438;2023-04-09T10:49:37;8.55;;;2.33;;
61104;SDS011;46987;32.638;-115.438;2023-04-09T10:52:04;9.38;;;2.65;;
61104;SDS011;46987;32.638;-115.438;2023-04-09T10:54:38;8.77;;;2.50;;
61104;SDS011;46987;32.638;-115.438;2023-04-09T10:59:52;10.07;;;2.28;;
61104;SDS011;46987;32.638;-115.438;2023-04-09T11:05:06;13.13;;;2.63;;
61104;SDS011;46987;32.638;-115.438;2023-04-09T11:07:35;11.25;;;2.60;;
61104;SDS011;46987;32.638;-115.438;2023-04-09T11:10:06;9.13;;;2.63;;
61104;SDS011;46987;32.638;-115.438;2023-04-09T11:12:32;11.05;;;3.38;;
61104;SDS011;46987;32.638;-115.438;2023-04-09T11:14:59;10.18;;;2.40;;
61104;SDS011;46987;32.638;-115.438;2023-04-09T11:17:25;10.13;;;2.40;;
61104;SDS011;46987;32.638;-115.438;2023-04-09T11:19:52;10.93;;;3.28;;
61104;SDS011;46987;32.638;-115.438;2023-04-09T11:22:22;7.72;;;2.60;;
61104;SDS011;46987;32.638;-115.438;2023-04-09T11:24:48;8.32;;;2.67;;
61104;SDS011;46987;32.638;-115.438;2023-04-09T11:27:16;12.90;;;3.08;;
61104;SDS011;46987;32.638;-115.438;2023-04-09T11:29:46;7.25;;;2.78;;
61104;SDS011;46987;32.638;-115.438;2023-04-09T11:32:13;7.85;;;2.60;;
61104;SDS011;46987;32.638;-115.438;2023-04-09T11:34:39;9.82;;;3.05;;
61104;SDS011;46987;32.638;-115.438;2023-04-09T11:37:06;12.15;;;3.72;;
61104;SDS011;46987;32.638;-115.438;2023-04-09T11:39:37;12.32;;;3.55;;
61104;SDS011;46987;32.638;-115.438;2023-04-09T11:42:04;10.65;;;2.97;;
61104;SDS011;46987;32.638;-115.438;2023-04-09T11:44:30;9.93;;;3.72;;
61104;SDS011;46987;32.638;-115.438;2023-04-09T11:46:57;14.10;;;4.25;;
61104;SDS011;46987;32.638;-115.438;2023-04-09T11:49:24;14.55;;;3.92;;
61104;SDS011;46987;32.638;-115.438;2023-04-09T11:51:51;21.48;;;4.22;;
61104;SDS011;46987;32.638;-115.438;2023-04-09T11:54:18;12.55;;;3.95;;
61104;SDS011;46987;32.638;-115.438;2023-04-09T11:56:46;18.33;;;3.88;;
61104;SDS011;46987;32.638;-115.438;2023-04-09T11:59:20;12.73;;;3.92;;
61104;SDS011;46987;32.638;-115.438;2023-04-09T12:01:48;16.60;;;4.03;;
61104;SDS011;46987;32.638;-115.438;2023-04-09T12:04:18;13.63;;;4.55;;
61104;SDS011;46987;32.638;-115.438;2023-04-09T12:06:45;11.75;;;3.50;;
61104;SDS011;46987;32.638;-115.438;2023-04-09T12:09:11;9.57;;;3.40;;
61104;SDS011;46987;32.638;-115.438;2023-04-09T12:11:41;11.95;;;3.38;;
61104;SDS011;46987;32.638;-115.438;2023-04-09T12:14:12;15.93;;;3.72;;
61104;SDS011;46987;32.638;-115.438;2023-04-09T12:16:39;31.48;;;4.63;;
61104;SDS011;46987;32.638;-115.438;2023-04-09T12:19:12;13.32;;;3.70;;
61104;SDS011;46987;32.638;-115.438;2023-04-09T12:21:45;12.38;;;3.63;;
61104;SDS011;46987;32.638;-115.438;2023-04-09T12:24:13;14.60;;;4.35;;
61104;SDS011;46987;32.638;-115.438;2023-04-09T12:26:43;10.25;;;4.20;;
61104;SDS011;46987;32.638;-115.438;2023-04-09T12:29:12;16.80;;;4.32;;
61104;SDS011;46987;32.638;-115.438;2023-04-09T12:31:39;15.38;;;3.95;;
61104;SDS011;46987;32.638;-115.438;2023-04-09T12:34:06;9.82;;;3.97;;
61104;SDS011;46987;32.638;-115.438;2023-04-09T12:36:32;10.35;;;3.55;;
61104;SDS011;46987;32.638;-115.438;2023-04-09T12:38:59;14.10;;;4.15;;
61104;SDS011;46987;32.638;-115.438;2023-04-09T12:41:26;10.68;;;3.10;;
61104;SDS011;46987;32.638;-115.438;2023-04-09T12:43:52;16.33;;;3.58;;
61104;SDS011;46987;32.638;-115.438;2023-04-09T12:46:21;9.35;;;2.92;;
61104;SDS011;46987;32.638;-115.438;2023-04-09T12:48:47;11.65;;;3.15;;
61104;SDS011;46987;32.638;-115.438;2023-04-09T12:51:14;14.95;;;4.07;;
61104;SDS011;46987;32.638;-115.438;2023-04-09T12:53:40;18.00;;;4.68;;
61104;SDS011;46987;32.638;-115.438;2023-04-09T12:56:07;13.68;;;4.50;;
61104;SDS011;46987;32.638;-115.438;2023-04-09T12:58:34;16.63;;;5.30;;
61104;SDS011;46987;32.638;-115.438;2023-04-09T13:01:01;11.68;;;3.25;;
61104;SDS011;46987;32.638;-115.438;2023-04-09T13:03:31;16.20;;;4.13;;
61104;SDS011;46987;32.638;-115.438;2023-04-09T13:05:58;18.67;;;4.38;;
61104;SDS011;46987;32.638;-115.438;2023-04-09T13:08:24;14.20;;;4.28;;
61104;SDS011;46987;32.638;-115.438;2023-04-09T13:10:51;10.35;;;3.50;;
61104;SDS011;46987;32.638;-115.438;2023-04-09T13:13:18;14.57;;;4.10;;
61104;SDS011;46987;32.638;-115.438;2023-04-09T13:15:45;10.80;;;3.35;;
61104;SDS011;46987;32.638;-115.438;2023-04-09T13:18:11;10.48;;;3.78;;
61104;SDS011;46987;32.638;-115.438;2023-04-09T13:20:40;9.00;;;3.17;;
61104;SDS011;46987;32.638;-115.438;2023-04-09T13:23:07;11.45;;;3.88;;
61104;SDS011;46987;32.638;-115.438;2023-04-09T13:25:35;11.02;;;2.75;;
61104;SDS011;46987;32.638;-115.438;2023-04-09T13:28:02;7.18;;;2.10;;
61104;SDS011;46987;32.638;-115.438;2023-04-09T13:30:29;7.38;;;2.33;;
61104;SDS011;46987;32.638;-115.438;2023-04-09T13:32:55;8.13;;;2.10;;
61104;SDS011;46987;32.638;-115.438;2023-04-09T13:35:22;6.43;;;2.03;;
61104;SDS011;46987;32.638;-115.438;2023-04-09T13:37:51;4.55;;;1.70;;
61104;SDS011;46987;32.638;-115.438;2023-04-09T13:40:17;12.32;;;2.70;;
61104;SDS011;46987;32.638;-115.438;2023-04-09T13:42:44;15.95;;;3.00;;
61104;SDS011;46987;32.638;-115.438;2023-04-09T13:45:10;8.15;;;1.50;;
61104;SDS011;46987;32.638;-115.438;2023-04-09T13:47:37;5.90;;;2.22;;
61104;SDS011;46987;32.638;-115.438;2023-04-09T13:50:04;12.57;;;2.80;;
61104;SDS011;46987;32.638;-115.438;2023-04-09T13:52:31;10.30;;;2.70;;
61104;SDS011;46987;32.638;-115.438;2023-04-09T13:55:00;12.73;;;3.10;;
61104;SDS011;46987;32.638;-115.438;2023-04-09T13:57:28;14.50;;;4.18;;
61104;SDS011;46987;32.638;-115.438;2023-04-09T13:59:54;12.43;;;5.75;;
61104;SDS011;46987;32.638;-115.438;2023-04-09T14:02:21;19.83;;;7.70;;
61104;SDS011;46987;32.638;-115.438;2023-04-09T14:04:48;19.00;;;8.00;;
61104;SDS011;46987;32.638;-115.438;2023-04-09T14:07:15;15.45;;;6.57;;
61104;SDS011;46987;32.638;-115.438;2023-04-09T14:09:42;15.30;;;6.78;;
61104;SDS011;46987;32.638;-115.438;2023-04-09T14:12:11;16.30;;;6.68;;